createdAt,value
2019-02-18T00:01:26.845Z,8.67
2019-02-18T00:03:56.325Z,8.07
2019-02-18T00:06:26.060Z,8.43
2019-02-18T00:08:55.440Z,8.33
2019-02-18T00:11:25.589Z,8.50
2019-02-18T00:13:55.389Z,8.70
2019-02-18T00:16:24.877Z,8.87
2019-02-18T00:18:54.331Z,8.53
2019-02-18T00:21:24.074Z,8.60
2019-02-18T00:23:56.285Z,8.57
2019-02-18T00:26:26.333Z,8.70
2019-02-18T00:28:55.781Z,8.73
2019-02-18T00:31:25.376Z,8.20
2019-02-18T00:33:55.153Z,8.67
2019-02-18T00:36:24.565Z,9.00
2019-02-18T00:38:54.345Z,8.30
2019-02-18T00:41:24.093Z,8.63
2019-02-18T00:43:53.797Z,8.23
2019-02-18T00:46:23.252Z,8.33
2019-02-18T00:48:53.037Z,8.50
2019-02-18T00:51:22.789Z,8.10
2019-02-18T00:53:52.596Z,8.57
2019-02-18T00:56:22.404Z,8.83
2019-02-18T00:58:51.801Z,8.20
2019-02-18T01:01:21.176Z,8.30
2019-02-18T01:03:51.045Z,8.33
2019-02-18T01:06:20.500Z,8.23
2019-02-18T01:08:50.310Z,8.37
2019-02-18T01:11:19.766Z,7.50
2019-02-18T01:13:49.620Z,7.90
2019-02-18T01:16:18.992Z,8.57
2019-02-18T01:18:48.756Z,8.43
2019-02-18T01:21:18.881Z,8.30
2019-02-18T01:23:48.300Z,8.17
2019-02-18T01:26:17.744Z,8.10
2019-02-18T01:28:47.222Z,8.53
2019-02-18T01:31:16.740Z,7.80
2019-02-18T01:33:46.428Z,8.30
2019-02-18T01:36:16.164Z,7.57
2019-02-18T01:38:45.603Z,9.00
2019-02-18T01:41:15.058Z,8.17
2019-02-18T01:43:44.534Z,8.03
2019-02-18T01:46:13.990Z,7.97
2019-02-18T01:48:43.776Z,8.60
2019-02-18T01:51:13.337Z,8.27
2019-02-18T01:53:42.810Z,7.73
2019-02-18T01:56:12.710Z,8.07
2019-02-18T01:58:42.237Z,7.53
2019-02-18T02:01:12.031Z,7.87
2019-02-18T02:03:41.856Z,7.80
2019-02-18T02:06:11.641Z,8.27
2019-02-18T02:08:41.362Z,8.67
2019-02-18T02:11:10.824Z,7.63
2019-02-18T02:13:40.209Z,7.90
2019-02-18T02:16:11.530Z,7.80
2019-02-18T02:18:41.752Z,8.00
2019-02-18T02:21:11.154Z,8.07
2019-02-18T02:23:40.610Z,8.23
2019-02-18T02:26:10.147Z,8.20
2019-02-18T02:28:39.585Z,7.67
2019-02-18T02:31:09.504Z,7.83
2019-02-18T02:33:39.005Z,8.23
2019-02-18T02:36:08.405Z,7.93
2019-02-18T02:38:37.785Z,8.33
2019-02-18T02:41:07.167Z,8.20
2019-02-18T02:43:36.632Z,7.80
2019-02-18T02:46:06.017Z,7.90
2019-02-18T02:48:35.851Z,8.13
2019-02-18T02:51:05.610Z,8.07
2019-02-18T02:53:35.075Z,8.60
2019-02-18T02:56:04.656Z,8.17
2019-02-18T02:58:34.466Z,7.60
2019-02-18T03:01:03.968Z,7.80
2019-02-18T03:03:33.420Z,7.93
2019-02-18T03:06:02.798Z,8.60
2019-02-18T03:08:32.582Z,8.10
2019-02-18T03:11:02.299Z,7.87
2019-02-18T03:13:31.977Z,7.93
2019-02-18T03:16:01.685Z,8.43
2019-02-18T03:18:31.060Z,8.60
2019-02-18T03:21:00.529Z,8.00
2019-02-18T03:23:30.381Z,8.03
2019-02-18T03:25:59.851Z,7.90
2019-02-18T03:29:25.042Z,7.73
2019-02-18T03:31:54.478Z,7.87
2019-02-18T03:34:29.053Z,7.90
2019-02-18T03:36:58.506Z,8.07
2019-02-18T03:39:27.917Z,8.20
2019-02-18T03:41:57.957Z,8.63
2019-02-18T03:44:27.372Z,7.87
2019-02-18T03:46:57.198Z,7.93
2019-02-18T03:49:29.873Z,8.23
2019-02-18T03:51:59.350Z,7.57
2019-02-18T03:54:29.089Z,8.03
2019-02-18T03:56:58.501Z,8.40
2019-02-18T03:59:27.973Z,8.10
2019-02-18T04:01:57.381Z,8.43
2019-02-18T04:04:27.110Z,7.93
2019-02-18T04:06:56.518Z,8.00
2019-02-18T04:09:25.959Z,8.17
2019-02-18T04:11:55.444Z,7.90
2019-02-18T04:14:24.881Z,8.07
2019-02-18T04:16:54.310Z,8.13
2019-02-18T04:19:23.756Z,7.73
2019-02-18T04:21:53.223Z,7.97
2019-02-18T04:24:23.185Z,9.00
2019-02-18T04:26:52.653Z,7.57
2019-02-18T04:29:22.396Z,8.10
2019-02-18T04:31:52.082Z,8.13
2019-02-18T04:34:21.529Z,7.83
2019-02-18T04:36:50.924Z,8.23
2019-02-18T04:39:20.602Z,8.33
2019-02-18T04:41:50.105Z,8.30
2019-02-18T04:44:20.126Z,8.30
2019-02-18T04:46:49.572Z,8.13
2019-02-18T04:49:18.969Z,8.47
2019-02-18T04:51:48.414Z,7.77
2019-02-18T04:54:17.833Z,8.33
2019-02-18T04:56:47.205Z,7.77
2019-02-18T04:59:16.950Z,8.57
2019-02-18T05:01:46.348Z,8.30
2019-02-18T05:04:15.741Z,8.70
2019-02-18T05:06:45.545Z,8.20
2019-02-18T05:09:15.286Z,8.20
2019-02-18T05:11:44.724Z,7.87
2019-02-18T05:14:14.806Z,7.80
2019-02-18T05:16:44.646Z,8.40
2019-02-18T05:19:14.434Z,8.43
2019-02-18T05:21:43.872Z,8.27
2019-02-18T05:24:13.411Z,8.50
2019-02-18T05:26:42.828Z,8.60
2019-02-18T05:29:12.222Z,8.43
2019-02-18T05:31:42.663Z,8.07
2019-02-18T05:34:12.293Z,8.60
2019-02-18T05:36:41.889Z,8.60
2019-02-18T05:39:18.040Z,7.80
2019-02-18T05:41:43.074Z,8.10
2019-02-18T05:44:12.865Z,8.33
2019-02-18T05:46:43.092Z,8.67
2019-02-18T05:49:12.645Z,8.03
2019-02-18T05:51:42.123Z,8.60
2019-02-18T05:54:11.660Z,8.63
2019-02-18T05:56:41.137Z,7.83
2019-02-18T05:59:10.840Z,7.70
2019-02-18T06:01:40.300Z,9.30
2019-02-18T06:04:10.072Z,8.37
2019-02-18T06:06:39.522Z,8.10
2019-02-18T06:09:09.346Z,8.73
2019-02-18T06:11:38.792Z,8.53
2019-02-18T06:14:08.574Z,7.37
2019-02-18T06:16:37.954Z,8.07
2019-02-18T06:19:08.088Z,8.50
2019-02-18T06:21:37.536Z,8.00
2019-02-18T06:24:06.906Z,7.67
2019-02-18T06:26:36.382Z,8.00
2019-02-18T06:29:05.831Z,8.07
2019-02-18T06:31:35.314Z,8.60
2019-02-18T06:34:04.764Z,8.00
2019-02-18T06:36:34.267Z,8.50
2019-02-18T06:39:05.533Z,8.07
2019-02-18T06:41:35.378Z,8.43
2019-02-18T06:44:05.497Z,8.40
2019-02-18T06:46:40.900Z,8.73
2019-02-18T06:49:15.806Z,8.03
2019-02-18T06:51:45.206Z,7.90
2019-02-18T06:54:14.580Z,7.87
2019-02-18T06:57:05.229Z,8.40
2019-02-18T06:59:38.809Z,8.63
2019-02-18T07:02:19.205Z,8.10
2019-02-18T07:04:56.680Z,8.27
2019-02-18T07:08:23.191Z,8.43
2019-02-18T07:11:17.814Z,9.07
2019-02-18T07:13:47.222Z,7.90
2019-02-18T07:16:16.644Z,8.07
2019-02-18T07:18:46.129Z,8.47
2019-02-18T07:21:16.345Z,8.13
2019-02-18T07:23:45.911Z,7.80
2019-02-18T07:26:15.396Z,8.37
2019-02-18T07:28:44.796Z,8.33
2019-02-18T07:31:14.257Z,8.17
2019-02-18T07:33:43.660Z,7.70
2019-02-18T07:36:13.418Z,7.70
2019-02-18T07:38:42.833Z,8.07
2019-02-18T07:41:12.772Z,8.00
2019-02-18T07:43:42.485Z,8.20
2019-02-18T07:46:11.932Z,8.00
2019-02-18T07:48:41.349Z,8.13
2019-02-18T07:51:10.789Z,7.70
2019-02-18T07:53:40.234Z,7.50
2019-02-18T07:56:09.763Z,8.03
2019-02-18T07:58:39.505Z,7.47
2019-02-18T08:01:09.243Z,7.27
2019-02-18T08:03:39.025Z,7.83
2019-02-18T08:06:08.396Z,7.70
2019-02-18T08:08:37.870Z,8.03
2019-02-18T08:11:07.660Z,7.93
2019-02-18T08:13:37.531Z,7.87
2019-02-18T08:16:07.320Z,7.67
2019-02-18T08:18:36.981Z,8.13
2019-02-18T08:21:06.757Z,7.53
2019-02-18T08:23:36.128Z,8.43
2019-02-18T08:26:06.725Z,7.30
2019-02-18T08:28:36.571Z,7.73
2019-02-18T08:31:06.406Z,7.70
2019-02-18T08:33:35.856Z,8.17
2019-02-18T08:36:05.256Z,7.10
2019-02-18T08:38:34.638Z,8.03
2019-02-18T08:41:04.040Z,7.80
2019-02-18T08:43:33.853Z,7.63
2019-02-18T08:46:03.329Z,7.77
2019-02-18T08:48:33.072Z,7.77
2019-02-18T08:51:02.753Z,8.50
2019-02-18T08:53:32.540Z,7.67
2019-02-18T08:56:01.913Z,7.80
2019-02-18T08:58:31.316Z,7.93
2019-02-18T09:01:02.892Z,7.27
2019-02-18T09:03:32.156Z,7.40
2019-02-18T09:06:02.298Z,7.50
2019-02-18T09:08:31.752Z,6.93
2019-02-18T09:11:01.224Z,7.47
2019-02-18T09:13:30.638Z,6.63
2019-02-18T09:16:00.663Z,6.83
2019-02-18T09:18:30.517Z,6.90
2019-02-18T09:20:59.926Z,7.37
2019-02-18T09:23:57.425Z,7.50
2019-02-18T09:26:27.044Z,6.93
2019-02-18T09:28:56.501Z,7.23
2019-02-18T09:31:29.041Z,6.97
2019-02-18T09:33:58.824Z,7.60
2019-02-18T09:36:28.230Z,7.50
2019-02-18T09:38:57.681Z,7.97
2019-02-18T09:41:27.529Z,7.50
2019-02-18T09:43:56.986Z,7.83
2019-02-18T09:46:26.454Z,7.77
2019-02-18T09:48:55.833Z,7.70
2019-02-18T09:51:25.344Z,7.73
2019-02-18T09:53:55.162Z,7.83
2019-02-18T09:56:24.576Z,7.87
2019-02-18T09:58:54.487Z,7.60
2019-02-18T10:01:24.390Z,7.53
2019-02-18T10:03:53.832Z,7.33
2019-02-18T10:06:23.245Z,7.90
2019-02-18T10:08:52.629Z,7.50
2019-02-18T10:11:22.341Z,7.67
2019-02-18T10:13:51.829Z,7.70
2019-02-18T10:16:21.609Z,7.37
2019-02-18T10:18:52.157Z,7.70
2019-02-18T10:21:21.615Z,7.30
2019-02-18T10:23:51.477Z,8.33
2019-02-18T10:26:20.926Z,7.47
2019-02-18T10:28:50.691Z,7.53
2019-02-18T10:31:20.136Z,7.80
2019-02-18T10:33:49.617Z,7.13
2019-02-18T10:36:19.063Z,8.00
2019-02-18T10:38:48.569Z,7.23
2019-02-18T10:41:19.311Z,8.63
2019-02-18T10:43:48.806Z,8.00
2019-02-18T10:46:18.560Z,7.50
2019-02-18T10:48:48.378Z,7.77
2019-02-18T10:51:17.833Z,8.00
2019-02-18T10:53:47.308Z,7.60
2019-02-18T10:56:17.805Z,7.47
2019-02-18T10:58:47.631Z,8.07
2019-02-18T11:01:17.109Z,7.47
2019-02-18T11:03:46.595Z,8.60
2019-02-18T11:06:16.558Z,8.70
2019-02-18T11:08:46.024Z,7.73
2019-02-18T11:11:17.214Z,7.77
2019-02-18T11:13:47.221Z,7.33
2019-02-18T11:16:17.025Z,7.85
2019-02-18T11:18:46.473Z,7.63
2019-02-18T11:21:16.657Z,7.90
2019-02-18T11:23:46.114Z,8.27
2019-02-18T11:26:15.599Z,7.45
2019-02-18T11:28:45.053Z,7.55
2019-02-18T11:31:14.546Z,7.78
2019-02-18T11:33:44.301Z,7.72
2019-02-18T11:36:14.274Z,8.27
2019-02-18T11:38:43.734Z,7.33
2019-02-18T11:41:13.210Z,8.50
2019-02-18T11:43:43.062Z,7.60
2019-02-18T11:46:12.833Z,7.53
2019-02-18T11:48:42.312Z,7.70
2019-02-18T11:51:12.157Z,8.40
2019-02-18T11:53:41.604Z,8.10
2019-02-18T11:56:11.086Z,8.13
2019-02-18T11:58:40.896Z,7.47
2019-02-18T12:01:10.598Z,7.60
2019-02-18T12:03:40.107Z,7.95
2019-02-18T12:06:09.585Z,8.18
2019-02-18T12:08:39.045Z,8.07
2019-02-18T12:11:08.622Z,7.83
2019-02-18T12:13:38.498Z,8.50
2019-02-18T12:16:08.594Z,8.45
2019-02-18T12:18:38.049Z,7.42
2019-02-18T12:21:07.857Z,8.03
2019-02-18T12:23:37.664Z,7.47
2019-02-18T12:26:07.232Z,8.10
2019-02-18T12:28:36.680Z,7.72
2019-02-18T12:31:06.561Z,7.40
2019-02-18T12:33:36.016Z,8.00
2019-02-18T12:36:05.508Z,7.40
2019-02-18T12:38:35.289Z,7.92
2019-02-18T12:41:05.437Z,8.03
2019-02-18T12:43:35.231Z,8.48
2019-02-18T12:46:15.301Z,7.62
2019-02-18T12:48:36.350Z,7.70
2019-02-18T12:51:05.821Z,7.37
2019-02-18T12:53:35.364Z,7.70
2019-02-18T12:56:04.933Z,7.62
2019-02-18T12:58:34.813Z,8.23
2019-02-18T13:01:06.476Z,8.03
2019-02-18T13:03:36.387Z,7.65
2019-02-18T13:06:05.893Z,7.75
2019-02-18T13:08:35.421Z,8.10
2019-02-18T13:11:05.337Z,7.90
2019-02-18T13:13:35.156Z,7.80
2019-02-18T13:16:04.969Z,7.80
2019-02-18T13:18:34.853Z,7.95
2019-02-18T13:21:04.731Z,7.95
2019-02-18T13:23:34.714Z,8.73
2019-02-18T13:26:04.187Z,8.75
2019-02-18T13:28:33.923Z,7.53
2019-02-18T13:31:03.413Z,7.65
2019-02-18T13:33:33.260Z,7.60
2019-02-18T13:36:03.872Z,7.00
2019-02-18T13:38:33.330Z,7.20
2019-02-18T13:41:02.817Z,7.22
2019-02-18T13:43:32.777Z,7.47
2019-02-18T13:46:02.257Z,7.12
2019-02-18T13:48:32.704Z,7.60
2019-02-18T13:51:02.181Z,7.72
2019-02-18T13:53:31.953Z,8.10
2019-02-18T13:56:01.543Z,7.87
2019-02-18T13:58:31.001Z,7.53
2019-02-18T14:01:00.495Z,7.95
2019-02-18T14:03:29.942Z,7.15
2019-02-18T14:05:59.823Z,7.80
2019-02-18T14:08:29.286Z,7.37
2019-02-18T14:10:59.408Z,7.70
2019-02-18T14:13:28.855Z,7.05
2019-02-18T14:15:59.268Z,7.65
2019-02-18T14:18:29.053Z,7.35
2019-02-18T14:20:58.528Z,7.25
2019-02-18T14:23:28.042Z,7.37
2019-02-18T14:25:58.180Z,7.50
2019-02-18T14:28:27.637Z,7.45
2019-02-18T14:30:58.311Z,7.80
2019-02-18T14:33:27.755Z,7.62
2019-02-18T14:35:57.569Z,6.92
2019-02-18T14:38:27.057Z,6.50
2019-02-18T14:40:56.832Z,6.67
2019-02-18T14:43:26.637Z,6.58
2019-02-18T14:45:56.489Z,6.45
2019-02-18T14:48:26.809Z,7.08
2019-02-18T14:50:57.001Z,7.10
2019-02-18T14:53:26.889Z,7.12
2019-02-18T14:55:56.625Z,7.10
2019-02-18T14:58:26.977Z,6.23
2019-02-18T15:00:56.793Z,6.53
2019-02-18T15:03:26.572Z,6.25
2019-02-18T15:05:56.162Z,6.43
2019-02-18T15:08:26.306Z,6.00
2019-02-18T15:10:55.754Z,6.40
2019-02-18T15:13:25.726Z,6.40
2019-02-18T15:15:55.177Z,6.90
2019-02-18T15:18:24.923Z,6.37
2019-02-18T15:20:54.385Z,7.00
2019-02-18T15:23:24.189Z,7.23
2019-02-18T15:25:54.247Z,6.37
2019-02-18T15:28:23.931Z,6.37
2019-02-18T15:30:53.482Z,6.57
2019-02-18T15:33:23.372Z,6.17
2019-02-18T15:35:53.492Z,7.03
2019-02-18T15:38:23.773Z,7.60
2019-02-18T15:40:53.275Z,6.67
2019-02-18T15:43:23.165Z,6.27
2019-02-18T15:45:53.012Z,5.90
2019-02-18T15:48:22.518Z,5.50
2019-02-18T15:50:53.775Z,6.00
2019-02-18T15:53:23.432Z,6.13
2019-02-18T15:55:54.313Z,5.97
2019-02-18T15:58:24.309Z,5.93
2019-02-18T16:00:54.178Z,6.33
2019-02-18T16:03:23.699Z,6.10
2019-02-18T16:05:53.852Z,6.03
2019-02-18T16:08:24.144Z,6.00
2019-02-18T16:10:54.137Z,5.70
2019-02-18T16:13:25.187Z,5.63
2019-02-18T16:15:55.274Z,6.17
2019-02-18T16:18:25.728Z,6.23
2019-02-18T16:20:55.202Z,5.93
2019-02-18T16:23:24.772Z,6.10
2019-02-18T16:25:54.552Z,6.33
2019-02-18T16:28:24.019Z,6.67
2019-02-18T16:30:53.846Z,6.53
2019-02-18T16:33:23.632Z,6.53
2019-02-18T16:35:53.143Z,7.00
2019-02-18T16:38:22.661Z,6.37
2019-02-18T16:40:52.490Z,5.87
2019-02-18T16:43:22.797Z,6.53
2019-02-18T16:45:52.334Z,6.13
2019-02-18T16:48:22.856Z,6.50
2019-02-18T16:50:52.767Z,6.57
2019-02-18T16:53:23.371Z,6.33
2019-02-18T16:55:52.879Z,6.80
2019-02-18T16:58:22.397Z,6.57
2019-02-18T17:00:57.720Z,6.17
2019-02-18T17:03:23.451Z,6.80
2019-02-18T17:05:55.192Z,7.00
2019-02-18T17:08:25.188Z,7.07
2019-02-18T17:10:54.786Z,6.97
2019-02-18T17:13:24.241Z,6.97
2019-02-18T17:15:53.766Z,6.80
2019-02-18T17:18:23.255Z,6.77
2019-02-18T17:20:53.003Z,7.27
2019-02-18T17:23:22.510Z,8.07
2019-02-18T17:25:51.966Z,7.10
2019-02-18T17:28:21.472Z,7.37
2019-02-18T17:30:51.197Z,6.87
2019-02-18T17:33:20.687Z,7.40
2019-02-18T17:35:51.012Z,7.40
2019-02-18T17:38:20.498Z,7.13
2019-02-18T17:40:49.952Z,7.20
2019-02-18T17:43:19.433Z,7.23
2019-02-18T17:45:49.252Z,7.00
2019-02-18T17:48:19.049Z,7.20
2019-02-18T17:50:49.185Z,6.63
2019-02-18T17:53:18.707Z,7.30
2019-02-18T17:55:48.802Z,6.87
2019-02-18T17:58:18.276Z,7.33
2019-02-18T18:00:50.103Z,6.53
2019-02-18T18:03:19.881Z,7.17
2019-02-18T18:05:49.341Z,7.10
2019-02-18T18:08:18.831Z,7.23
2019-02-18T18:10:48.610Z,7.80
2019-02-18T18:13:24.993Z,7.03
2019-02-18T18:15:49.946Z,7.03
2019-02-18T18:18:21.008Z,7.20
2019-02-18T18:20:50.465Z,7.23
2019-02-18T18:23:19.925Z,7.80
2019-02-18T18:25:51.233Z,7.80
2019-02-18T18:28:21.003Z,7.03
2019-02-18T18:30:50.955Z,6.83
2019-02-18T18:33:20.612Z,7.70
2019-02-18T18:35:50.417Z,7.10
2019-02-18T18:38:20.197Z,7.20
2019-02-18T18:40:50.006Z,7.40
2019-02-18T18:43:21.390Z,7.60
2019-02-18T18:45:51.337Z,7.13
2019-02-18T18:48:21.160Z,7.90
2019-02-18T18:50:50.962Z,7.57
2019-02-18T18:53:20.493Z,7.53
2019-02-18T18:55:50.322Z,7.63
2019-02-18T18:58:19.781Z,7.37
2019-02-18T19:00:49.387Z,7.50
2019-02-18T19:03:18.853Z,7.77
2019-02-18T19:05:48.782Z,7.57
2019-02-18T19:08:18.302Z,7.50
2019-02-18T19:10:48.108Z,7.30
2019-02-18T19:13:17.992Z,7.73
2019-02-18T19:15:49.617Z,7.83
2019-02-18T19:18:18.562Z,7.73
2019-02-18T19:20:48.109Z,8.03
2019-02-18T19:23:17.913Z,7.37
2019-02-18T19:25:47.446Z,7.60
2019-02-18T19:28:17.364Z,7.70
2019-02-18T19:30:46.849Z,7.87
2019-02-18T19:33:16.647Z,8.30
2019-02-18T19:35:46.144Z,7.30
2019-02-18T19:38:20.016Z,8.03
2019-02-18T19:40:49.800Z,7.63
2019-02-18T19:43:19.940Z,7.73
2019-02-18T19:45:49.397Z,8.50
2019-02-18T19:48:19.964Z,8.17
2019-02-18T19:50:49.836Z,9.17
2019-02-18T19:53:19.371Z,8.30
2019-02-18T19:55:49.533Z,8.10
2019-02-18T19:58:19.662Z,8.57
2019-02-18T20:00:49.980Z,8.30
2019-02-18T20:03:19.894Z,7.90
2019-02-18T20:05:49.355Z,8.27
2019-02-18T20:08:19.825Z,7.77
2019-02-18T20:10:50.204Z,8.67
2019-02-18T20:13:23.118Z,8.20
2019-02-18T20:15:54.408Z,8.27
2019-02-18T20:18:23.982Z,7.73
2019-02-18T20:21:01.050Z,7.90
2019-02-18T20:23:31.090Z,7.23
2019-02-18T20:26:00.853Z,8.33
2019-02-18T20:28:30.333Z,7.37
2019-02-18T20:30:59.767Z,7.50
2019-02-18T20:33:29.644Z,7.80
2019-02-18T20:35:59.089Z,8.10
2019-02-18T20:38:28.570Z,8.33
2019-02-18T20:40:58.025Z,8.33
2019-02-18T20:43:27.534Z,8.00
2019-02-18T20:45:56.984Z,8.37
2019-02-18T20:48:26.660Z,7.20
2019-02-18T20:50:56.104Z,8.23
2019-02-18T20:53:25.604Z,8.47
2019-02-18T20:55:55.393Z,8.00
2019-02-18T20:58:24.903Z,8.40
2019-02-18T21:00:54.372Z,8.37
2019-02-18T21:03:24.109Z,7.60
2019-02-18T21:05:54.321Z,8.23
2019-02-18T21:08:23.804Z,8.27
2019-02-18T21:10:53.657Z,7.83
2019-02-18T21:13:23.174Z,8.47
2019-02-18T21:15:53.022Z,8.13
2019-02-18T21:18:22.501Z,7.87
2019-02-18T21:20:51.976Z,8.17
2019-02-18T21:23:21.609Z,8.43
2019-02-18T21:25:51.805Z,8.43
2019-02-18T21:28:21.266Z,7.83
2019-02-18T21:30:51.309Z,8.50
2019-02-18T21:33:20.766Z,7.60
2019-02-18T21:35:50.221Z,8.27
2019-02-18T21:38:19.709Z,7.97
2019-02-18T21:40:49.541Z,8.70
2019-02-18T21:43:19.017Z,8.53
2019-02-18T21:45:48.782Z,8.13
2019-02-18T21:48:18.681Z,8.20
2019-02-18T21:50:48.914Z,7.90
2019-02-18T21:53:18.769Z,8.03
2019-02-18T21:55:48.206Z,8.00
2019-02-18T21:58:17.689Z,8.30
2019-02-18T22:00:47.434Z,8.43
2019-02-18T22:03:17.716Z,8.23
2019-02-18T22:05:47.361Z,8.17
2019-02-18T22:08:16.836Z,9.17
2019-02-18T22:10:46.225Z,8.37
2019-02-18T22:13:15.697Z,7.97
2019-02-18T22:15:45.393Z,8.40
2019-02-18T22:18:15.632Z,8.17
2019-02-18T22:20:45.064Z,8.13
2019-02-18T22:23:14.537Z,7.93
2019-02-18T22:25:44.002Z,7.90
2019-02-18T22:28:13.491Z,7.93
2019-02-18T22:30:43.457Z,9.10
2019-02-18T22:33:12.933Z,8.47
2019-02-18T22:35:42.669Z,8.83
2019-02-18T22:38:12.140Z,8.40
2019-02-18T22:40:41.630Z,7.13
2019-02-18T22:43:11.105Z,7.60
2019-02-18T22:45:40.966Z,8.33
2019-02-18T22:48:11.217Z,8.47
2019-02-18T22:50:40.684Z,8.30
2019-02-18T22:53:10.128Z,8.47
2019-02-18T22:55:39.698Z,8.50
2019-02-18T22:58:09.152Z,8.43
2019-02-18T23:00:54.370Z,8.50
2019-02-18T23:03:24.332Z,8.07
2019-02-18T23:05:54.301Z,8.80
2019-02-18T23:08:24.092Z,8.37
2019-02-18T23:10:53.974Z,7.90
2019-02-18T23:13:23.756Z,8.73
2019-02-18T23:15:53.506Z,7.77
2019-02-18T23:18:23.084Z,9.03
2019-02-18T23:20:52.914Z,8.30
2019-02-18T23:23:22.748Z,7.80
2019-02-18T23:25:52.241Z,8.47
2019-02-18T23:28:22.682Z,8.43
2019-02-18T23:30:52.163Z,8.33
2019-02-18T23:33:21.616Z,8.13
2019-02-18T23:35:51.050Z,8.20
2019-02-18T23:38:20.505Z,7.90
2019-02-18T23:40:49.921Z,8.70
2019-02-18T23:43:19.476Z,8.20
2019-02-18T23:45:48.954Z,8.77
2019-02-18T23:48:18.415Z,8.50
2019-02-18T23:50:47.885Z,8.03
2019-02-18T23:53:17.265Z,8.40
2019-02-18T23:55:46.665Z,8.50
2019-02-18T23:58:16.645Z,8.13
